Time;durP1;ratioP1;P1;durP2;ratioP2;P2;SDS_P1;SDS_P2;PMS_P1;PMS_P2;Temp;Humidity;BMP_temperature;BMP_pressure;BME280_temperature;BME280_humidity;BME280_pressure;Samples;Min_cycle;Max_cycle;Signal;HPM_P1;HPM_P2
2022/03/13 00:00:32;;;;;;;3.80;2.90;;;17.20;48.40;;;;;;5094638;28;20182;-17
2022/03/13 00:03:02;;;;;;;4.03;3.17;;;17.20;48.30;;;;;;5094570;28;20251;-16
2022/03/13 00:05:28;;;;;;;4.07;3.20;;;17.10;48.20;;;;;;5094753;28;20216;-15
2022/03/13 00:07:56;;;;;;;4.97;3.33;;;17.20;48.30;;;;;;5094364;28;20420;-17
2022/03/13 00:10:27;;;;;;;3.40;3.07;;;17.20;48.30;;;;;;5096146;28;20555;-14
2022/03/13 00:12:54;;;;;;;3.33;3.00;;;17.10;48.20;;;;;;5094673;28;20604;-16
2022/03/13 00:15:31;;;;;;;3.73;3.07;;;17.10;48.60;;;;;;5094295;28;20177;-15
2022/03/13 00:17:59;;;;;;;3.97;2.90;;;17.10;48.20;;;;;;5093870;28;20272;-20
2022/03/13 00:20:27;;;;;;;4.70;2.97;;;17.10;48.20;;;;;;5094191;28;20185;-19
2022/03/13 00:22:54;;;;;;;4.10;3.10;;;17.10;48.20;;;;;;5093877;28;20696;-15
2022/03/13 00:25:20;;;;;;;3.70;3.10;;;17.10;48.20;;;;;;5094895;28;20178;-17
2022/03/13 00:27:47;;;;;;;4.30;3.50;;;17.10;48.10;;;;;;5093962;28;20175;-16
2022/03/13 00:30:13;;;;;;;3.50;3.10;;;17.10;48.10;;;;;;5094342;28;20182;-17
2022/03/13 00:32:39;;;;;;;4.30;3.23;;;17.10;48.10;;;;;;5094716;28;20212;-14
2022/03/13 00:35:05;;;;;;;3.53;3.10;;;17.10;48.10;;;;;;5094030;28;20180;-16
2022/03/13 00:37:31;;;;;;;4.77;3.70;;;17.00;48.00;;;;;;5094862;28;20290;-19
2022/03/13 00:39:57;;;;;;;3.73;3.30;;;17.00;47.90;;;;;;5094535;28;20167;-14
2022/03/13 00:42:24;;;;;;;3.40;3.10;;;17.00;47.90;;;;;;5094774;28;20246;-20
2022/03/13 00:44:49;;;;;;;3.60;2.77;;;17.00;47.90;;;;;;5095274;28;20175;-17
2022/03/13 00:47:18;;;;;;;8.60;2.90;;;17.00;47.90;;;;;;5093616;28;20177;-17
2022/03/13 00:49:45;;;;;;;3.57;3.10;;;17.00;47.90;;;;;;5092839;28;20178;-14
2022/03/13 00:52:10;;;;;;;3.50;3.20;;;17.00;47.90;;;;;;5095019;28;20593;-15
2022/03/13 00:54:36;;;;;;;3.50;3.10;;;17.00;47.90;;;;;;5093697;28;20593;-19
2022/03/13 00:57:02;;;;;;;3.20;2.87;;;17.00;47.90;;;;;;5095381;28;20548;-15
2022/03/13 00:59:28;;;;;;;4.33;3.00;;;16.90;47.80;;;;;;5093973;28;20173;-16
2022/03/13 01:01:54;;;;;;;3.00;2.70;;;16.90;47.80;;;;;;5093111;28;20226;-14
2022/03/13 01:04:19;;;;;;;4.17;3.40;;;17.00;47.90;;;;;;5093647;28;20203;-17
2022/03/13 01:06:46;;;;;;;3.40;3.10;;;17.00;48.30;;;;;;5094754;28;20188;-16
2022/03/13 01:09:12;;;;;;;3.43;3.10;;;16.90;47.80;;;;;;5094497;28;20250;-15
2022/03/13 01:11:38;;;;;;;4.10;3.00;;;16.90;47.80;;;;;;5094165;28;20220;-15
2022/03/13 01:14:05;;;;;;;3.20;2.87;;;16.90;47.80;;;;;;5094030;28;20173;-14
2022/03/13 01:16:39;;;;;;;3.73;2.70;;;16.90;47.80;;;;;;5094873;28;20166;-17
2022/03/13 01:19:05;;;;;;;3.33;2.63;;;16.90;47.90;;;;;;5094186;28;20196;-16
2022/03/13 01:21:37;;;;;;;4.27;2.73;;;16.90;47.80;;;;;;5092431;28;20473;-19
2022/03/13 01:24:03;;;;;;;3.40;2.80;;;16.90;47.80;;;;;;5095227;28;20198;-16
2022/03/13 01:26:37;;;;;;;2.90;2.60;;;16.90;47.80;;;;;;5094309;28;20240;-18
2022/03/13 01:29:06;;;;;;;2.93;2.67;;;16.90;47.80;;;;;;5094394;28;20237;-17
2022/03/13 01:31:35;;;;;;;4.37;2.77;;;16.90;47.80;;;;;;5093528;28;20188;-17
2022/03/13 01:34:02;;;;;;;3.10;2.80;;;16.90;47.80;;;;;;5094365;28;20219;-17
2022/03/13 01:36:28;;;;;;;3.57;2.67;;;16.90;47.80;;;;;;5094911;28;20168;-15
2022/03/13 01:38:59;;;;;;;2.87;2.50;;;16.90;47.80;;;;;;5093177;28;20479;-18
2022/03/13 01:41:27;;;;;;;2.90;2.60;;;16.90;47.80;;;;;;5090816;28;20182;-16
2022/03/13 01:43:54;;;;;;;3.03;2.73;;;16.90;47.80;;;;;;5092785;28;20159;-15
2022/03/13 01:46:19;;;;;;;3.07;2.77;;;16.90;47.80;;;;;;5092598;28;20205;-21
2022/03/13 01:48:55;;;;;;;3.07;2.60;;;16.90;47.80;;;;;;5094223;28;20269;-14
2022/03/13 01:51:22;;;;;;;3.07;2.60;;;16.80;47.70;;;;;;5093193;28;20162;-13
2022/03/13 01:53:58;;;;;;;2.80;2.50;;;16.80;47.70;;;;;;5092174;28;20315;-13
2022/03/13 01:56:24;;;;;;;3.57;2.70;;;16.80;47.70;;;;;;5093660;28;20589;-17
2022/03/13 01:58:54;;;;;;;3.17;2.70;;;16.80;47.70;;;;;;5094346;28;20173;-14
2022/03/13 02:01:22;;;;;;;2.77;2.50;;;16.80;47.70;;;;;;5093919;28;20232;-14
2022/03/13 02:03:49;;;;;;;2.77;2.53;;;16.80;47.70;;;;;;5094611;28;20177;-16
2022/03/13 02:06:16;;;;;;;3.10;2.80;;;16.80;47.80;;;;;;5094219;28;20195;-15
2022/03/13 02:08:44;;;;;;;2.97;2.60;;;16.80;47.80;;;;;;5094737;28;20193;-14
2022/03/13 02:11:14;;;;;;;3.77;2.47;;;16.80;47.80;;;;;;5093393;28;20173;-15
2022/03/13 02:13:40;;;;;;;2.80;2.50;;;16.80;47.80;;;;;;5094055;28;20210;-14
2022/03/13 02:16:07;;;;;;;2.90;2.60;;;16.80;47.80;;;;;;5093468;28;20169;-16
2022/03/13 02:18:33;;;;;;;3.27;2.50;;;16.80;47.80;;;;;;5094337;28;20453;-17
2022/03/13 02:20:59;;;;;;;2.93;2.40;;;16.80;47.80;;;;;;5093144;28;20185;-17
2022/03/13 02:23:27;;;;;;;2.63;2.23;;;16.70;47.70;;;;;;5093987;28;20207;-17
2022/03/13 02:25:58;;;;;;;3.00;2.60;;;16.70;47.70;;;;;;5093480;28;20176;-13
2022/03/13 02:28:29;;;;;;;3.00;2.50;;;16.70;47.80;;;;;;5081131;28;20175;-16
2022/03/13 02:31:18;;;;;;;3.93;2.40;;;16.70;47.80;;;;;;5089693;28;20175;-18
2022/03/13 02:33:43;;;;;;;2.70;2.30;;;16.70;48.20;;;;;;5084734;28;20183;-18
2022/03/13 02:36:31;;;;;;;3.63;2.70;;;16.70;47.80;;;;;;5081060;28;20199;-18
2022/03/13 02:39:01;;;;;;;3.57;2.50;;;16.70;47.80;;;;;;5075652;28;20200;-18
2022/03/13 02:41:27;;;;;;;3.10;2.40;;;16.70;47.80;;;;;;5076508;28;20247;-14
2022/03/13 02:44:00;;;;;;;2.93;2.20;;;16.70;47.80;;;;;;5075357;28;20326;-15
2022/03/13 02:46:48;;;;;;;2.40;2.10;;;16.70;47.80;;;;;;5075810;28;20167;-15
2022/03/13 02:49:19;;;;;;;2.77;2.47;;;16.70;47.80;;;;;;5075447;28;20590;-15
2022/03/13 02:51:46;;;;;;;2.70;2.20;;;16.60;47.80;;;;;;5085738;28;20202;-21
2022/03/13 02:54:14;;;;;;;2.73;2.40;;;16.60;47.80;;;;;;5097165;28;20274;-17
2022/03/13 02:56:39;;;;;;;2.50;2.17;;;16.70;47.80;;;;;;5096750;28;20170;-14
2022/03/13 02:59:06;;;;;;;2.80;2.17;;;16.60;47.80;;;;;;5079083;28;20176;-17
2022/03/13 03:01:32;;;;;;;3.00;2.40;;;16.70;47.80;;;;;;5078132;28;20181;-18
2022/03/13 03:04:01;;;;;;;2.37;2.17;;;16.60;47.80;;;;;;5079131;28;20178;-16
2022/03/13 03:06:31;;;;;;;2.57;2.33;;;16.60;47.80;;;;;;5080201;28;20208;-20
2022/03/13 03:09:02;;;;;;;2.60;2.40;;;16.60;47.80;;;;;;5093334;28;20178;-16
2022/03/13 03:11:28;;;;;;;2.53;2.20;;;16.60;47.80;;;;;;5090653;28;20182;-17
2022/03/13 03:13:54;;;;;;;2.77;2.20;;;16.60;47.80;;;;;;5079260;28;20174;-14
2022/03/13 03:16:20;;;;;;;2.63;2.27;;;16.60;47.80;;;;;;5079225;28;20248;-17
2022/03/13 03:18:46;;;;;;;2.53;2.13;;;16.60;47.80;;;;;;5080064;28;20606;-16
2022/03/13 03:21:13;;;;;;;2.50;2.30;;;16.60;47.80;;;;;;5079459;28;20467;-17
2022/03/13 03:23:39;;;;;;;2.57;2.37;;;16.60;47.80;;;;;;5079894;28;20177;-14
2022/03/13 03:26:06;;;;;;;2.30;2.00;;;16.60;47.80;;;;;;5080072;28;20237;-17
2022/03/13 03:28:34;;;;;;;2.80;2.43;;;16.60;47.80;;;;;;5078986;28;20203;-17
2022/03/13 03:31:01;;;;;;;2.47;2.07;;;16.60;47.80;;;;;;5079040;28;20183;-17
2022/03/13 03:33:27;;;;;;;2.20;2.00;;;16.60;47.80;;;;;;5089119;28;20203;-14
2022/03/13 03:35:53;;;;;;;3.50;2.10;;;16.60;47.80;;;;;;5081988;28;20632;-18
2022/03/13 03:38:20;;;;;;;3.47;2.23;;;16.60;47.80;;;;;;5099353;28;20173;-15
2022/03/13 03:40:47;;;;;;;2.50;2.30;;;16.50;47.80;;;;;;5096220;28;20183;-17
2022/03/13 03:43:13;;;;;;;2.50;2.23;;;16.50;47.80;;;;;;5080145;28;20244;-17
2022/03/13 03:45:39;;;;;;;2.53;2.17;;;16.50;47.80;;;;;;5079284;28;20185;-15
2022/03/13 03:48:05;;;;;;;2.80;2.13;;;16.50;47.70;;;;;;5079776;28;20200;-15
2022/03/13 03:50:31;;;;;;;2.50;2.30;;;16.50;47.70;;;;;;5079002;28;20180;-16
2022/03/13 03:52:57;;;;;;;2.40;2.20;;;16.50;47.70;;;;;;5078610;28;20668;-16
2022/03/13 03:55:24;;;;;;;2.43;2.23;;;16.50;47.70;;;;;;5079058;28;20150;-17
2022/03/13 03:57:51;;;;;;;2.63;2.27;;;16.50;47.80;;;;;;5078104;28;20532;-18
2022/03/13 04:00:18;;;;;;;2.67;2.20;;;16.50;47.80;;;;;;5078435;28;20264;-19
2022/03/13 04:02:43;;;;;;;2.30;2.10;;;16.40;47.70;;;;;;5078387;28;20467;-17
2022/03/13 04:05:10;;;;;;;2.53;2.20;;;16.40;47.70;;;;;;5077908;28;20557;-18
2022/03/13 04:07:38;;;;;;;2.67;2.37;;;16.40;47.70;;;;;;5078453;28;20173;-18
2022/03/13 04:10:08;;;;;;;2.27;2.07;;;16.40;47.70;;;;;;5078970;28;20173;-14
2022/03/13 04:12:34;;;;;;;2.10;1.90;;;16.40;47.70;;;;;;5078626;28;20771;-14
2022/03/13 04:15:01;;;;;;;2.30;2.10;;;16.40;47.70;;;;;;5078267;28;20172;-16
2022/03/13 04:17:28;;;;;;;2.20;2.00;;;16.40;47.70;;;;;;5077973;28;20171;-17
2022/03/13 04:19:54;;;;;;;2.20;2.00;;;16.40;47.70;;;;;;5078376;28;20191;-15
2022/03/13 04:22:20;;;;;;;2.27;2.00;;;16.40;47.70;;;;;;5078900;28;20178;-17
2022/03/13 04:24:45;;;;;;;2.73;2.10;;;16.40;47.70;;;;;;5078076;28;20283;-18
2022/03/13 04:27:13;;;;;;;2.70;1.80;;;16.40;47.70;;;;;;5078464;28;20204;-15
2022/03/13 04:29:40;;;;;;;2.10;1.90;;;16.40;47.70;;;;;;5078111;28;20183;-15
2022/03/13 04:32:08;;;;;;;2.07;1.87;;;16.30;47.70;;;;;;5082379;28;20201;-19
2022/03/13 04:34:35;;;;;;;2.43;2.00;;;16.40;48.10;;;;;;5091654;28;20525;-20
2022/03/13 04:37:03;;;;;;;2.43;2.23;;;16.40;47.70;;;;;;5088551;28;20188;-18
2022/03/13 04:39:35;;;;;;;2.23;2.03;;;16.30;47.60;;;;;;5078364;28;20206;-16
2022/03/13 04:42:05;;;;;;;2.30;2.10;;;16.30;47.60;;;;;;5078665;28;20600;-17
2022/03/13 04:44:32;;;;;;;2.40;2.10;;;16.30;47.70;;;;;;5087870;28;20706;-15
2022/03/13 04:46:59;;;;;;;2.23;2.03;;;16.30;47.60;;;;;;5098328;28;20167;-19
2022/03/13 04:49:24;;;;;;;2.57;2.10;;;16.30;47.70;;;;;;5098418;28;20173;-16
2022/03/13 04:51:50;;;;;;;2.03;1.83;;;16.30;47.70;;;;;;5098109;28;20271;-17
2022/03/13 04:54:17;;;;;;;1.70;1.60;;;16.30;47.70;;;;;;5098482;28;20266;-16
2022/03/13 04:56:44;;;;;;;2.70;2.00;;;16.30;47.70;;;;;;5097840;28;20183;-20
2022/03/13 04:59:11;;;;;;;1.90;1.70;;;16.30;47.70;;;;;;5099212;28;20165;-17
2022/03/13 05:01:37;;;;;;;2.67;2.40;;;16.30;47.70;;;;;;5097661;28;20168;-18
2022/03/13 05:04:02;;;;;;;2.20;2.00;;;16.20;47.60;;;;;;5098939;28;20180;-17
2022/03/13 05:06:30;;;;;;;1.70;1.60;;;16.20;47.60;;;;;;5098641;28;20191;-17
2022/03/13 05:08:56;;;;;;;2.80;2.00;;;16.20;47.60;;;;;;5098681;28;20164;-17
2022/03/13 05:11:22;;;;;;;2.10;1.90;;;16.20;47.60;;;;;;5098080;28;20167;-18
2022/03/13 05:13:47;;;;;;;2.50;2.20;;;16.20;47.60;;;;;;5096646;28;20211;-15
2022/03/13 05:16:13;;;;;;;2.17;1.97;;;16.20;47.60;;;;;;5098078;28;20171;-18
2022/03/13 05:18:39;;;;;;;2.20;2.00;;;16.20;47.60;;;;;;5098200;28;20182;-14
2022/03/13 05:21:05;;;;;;;2.10;1.90;;;16.20;47.60;;;;;;5097493;28;20183;-17
2022/03/13 05:23:30;;;;;;;1.90;1.73;;;16.20;47.60;;;;;;5098419;28;20166;-15
2022/03/13 05:25:58;;;;;;;2.03;1.73;;;16.20;47.60;;;;;;5097165;28;20179;-16
2022/03/13 05:28:24;;;;;;;2.00;1.90;;;16.20;47.60;;;;;;5097904;28;20469;-18
2022/03/13 05:30:50;;;;;;;2.10;1.90;;;16.20;47.60;;;;;;5096965;28;20540;-17
2022/03/13 05:33:15;;;;;;;3.33;1.80;;;16.20;47.60;;;;;;5097628;28;20300;-18
2022/03/13 05:35:41;;;;;;;2.10;1.90;;;16.10;47.60;;;;;;5097517;28;20184;-18
2022/03/13 05:38:07;;;;;;;2.43;2.10;;;16.10;47.60;;;;;;5097901;28;20633;-15
2022/03/13 05:40:35;;;;;;;2.63;2.13;;;16.10;47.70;;;;;;5098204;28;20611;-19
2022/03/13 05:43:02;;;;;;;2.20;2.00;;;16.10;47.50;;;;;;5098464;28;20169;-19
2022/03/13 05:45:29;;;;;;;2.20;2.00;;;16.10;47.50;;;;;;5097385;28;20171;-14
2022/03/13 05:47:56;;;;;;;2.30;2.10;;;16.10;47.50;;;;;;5080453;28;20189;-19
2022/03/13 05:50:23;;;;;;;1.97;1.73;;;16.10;47.50;;;;;;5096496;28;20294;-14
2022/03/13 05:52:50;;;;;;;2.50;2.00;;;16.10;47.50;;;;;;5096661;28;20194;-19
2022/03/13 05:55:17;;;;;;;2.93;2.10;;;16.10;47.50;;;;;;5096936;28;20219;-18
2022/03/13 05:57:43;;;;;;;2.30;2.10;;;16.10;47.40;;;;;;5098241;28;20165;-23
2022/03/13 06:00:12;;;;;;;2.00;1.80;;;16.10;47.40;;;;;;5096813;28;20451;-17
2022/03/13 06:02:39;;;;;;;2.27;1.97;;;16.10;47.40;;;;;;5097441;28;20545;-15
2022/03/13 06:05:06;;;;;;;2.40;1.80;;;16.10;47.40;;;;;;5097363;28;20191;-16
2022/03/13 06:07:32;;;;;;;2.10;1.90;;;16.10;47.40;;;;;;5096946;28;20522;-19
2022/03/13 06:10:02;;;;;;;2.60;2.13;;;16.10;47.30;;;;;;5096473;28;20799;-18
2022/03/13 06:12:28;;;;;;;2.30;2.10;;;16.10;47.20;;;;;;5096392;28;20217;-15
2022/03/13 06:14:53;;;;;;;2.03;1.83;;;16.10;47.20;;;;;;5097099;28;20153;-16
2022/03/13 06:17:19;;;;;;;3.83;1.87;;;16.10;47.10;;;;;;5096798;28;20180;-16
2022/03/13 06:19:45;;;;;;;2.37;2.17;;;16.10;47.10;;;;;;5097096;28;20256;-18
2022/03/13 06:22:12;;;;;;;2.43;2.10;;;16.20;47.10;;;;;;5095710;28;20200;-18
2022/03/13 06:24:38;;;;;;;2.43;2.07;;;16.20;47.00;;;;;;5085073;28;20472;-17
2022/03/13 06:27:05;;;;;;;1.97;1.73;;;16.20;47.00;;;;;;5096413;28;20567;-15
2022/03/13 06:29:31;;;;;;;2.37;2.17;;;16.20;46.90;;;;;;5100436;28;20177;-16
2022/03/13 06:31:58;;;;;;;2.40;2.17;;;16.20;46.90;;;;;;5100925;28;20187;-15
2022/03/13 06:34:29;;;;;;;2.67;2.07;;;16.30;46.90;;;;;;5101530;28;20172;-19
2022/03/13 06:36:54;;;;;;;2.30;2.07;;;16.30;46.80;;;;;;5099685;28;20574;-19
2022/03/13 06:39:20;;;;;;;2.53;2.07;;;16.40;46.70;;;;;;5081093;28;20535;-19
2022/03/13 06:41:45;;;;;;;2.20;2.00;;;16.50;46.50;;;;;;5079561;28;20773;-18
2022/03/13 06:44:12;;;;;;;2.23;2.03;;;16.60;46.40;;;;;;5080979;28;20167;-17
2022/03/13 06:46:37;;;;;;;2.63;2.00;;;16.70;46.30;;;;;;5080492;28;20155;-19
2022/03/13 06:49:05;;;;;;;2.30;2.03;;;16.80;46.20;;;;;;5079962;28;20177;-16
2022/03/13 06:51:32;;;;;;;2.10;1.90;;;16.80;46.10;;;;;;5079352;28;20196;-14
2022/03/13 06:53:58;;;;;;;2.20;1.87;;;16.90;46.00;;;;;;5079737;28;20172;-16
2022/03/13 06:56:24;;;;;;;2.27;2.07;;;16.90;45.90;;;;;;5080363;28;20177;-14
2022/03/13 06:58:49;;;;;;;1.90;1.67;;;17.00;45.80;;;;;;5080518;28;20168;-17
2022/03/13 07:01:16;;;;;;;2.33;2.13;;;17.00;45.80;;;;;;5079306;28;20584;-17
2022/03/13 07:03:42;;;;;;;2.27;2.07;;;17.10;45.70;;;;;;5080932;28;20198;-19
2022/03/13 07:06:08;;;;;;;1.80;1.70;;;17.10;45.70;;;;;;5080028;28;20175;-20
2022/03/13 07:08:34;;;;;;;2.23;2.03;;;17.10;45.70;;;;;;5079766;28;20197;-18
2022/03/13 07:11:01;;;;;;;2.30;2.10;;;17.10;45.70;;;;;;5080549;28;20561;-19
2022/03/13 07:13:31;;;;;;;1.93;1.80;;;17.20;45.60;;;;;;5079211;28;20207;-20
2022/03/13 07:15:59;;;;;;;2.17;1.90;;;17.20;45.60;;;;;;5078860;28;20562;-21
2022/03/13 07:18:26;;;;;;;2.17;1.97;;;17.30;45.50;;;;;;5078556;28;20266;-19
2022/03/13 07:20:52;;;;;;;2.03;1.90;;;17.40;45.40;;;;;;5079085;28;20198;-19
2022/03/13 07:23:18;;;;;;;2.40;2.20;;;17.50;45.40;;;;;;5079988;28;20170;-17
2022/03/13 07:25:43;;;;;;;3.03;2.10;;;17.60;45.30;;;;;;5079879;28;20163;-21
2022/03/13 07:28:14;;;;;;;2.17;1.97;;;17.60;45.20;;;;;;5078773;28;20274;-20
2022/03/13 07:30:40;;;;;;;1.83;1.73;;;17.60;45.20;;;;;;5079448;28;20172;-16
2022/03/13 07:33:06;;;;;;;2.23;1.80;;;17.60;45.20;;;;;;5079954;28;20221;-21
2022/03/13 07:35:32;;;;;;;2.50;2.30;;;17.60;45.20;;;;;;5079314;28;20270;-15
2022/03/13 07:37:58;;;;;;;2.40;2.20;;;17.60;45.10;;;;;;5079246;28;20252;-18
2022/03/13 07:40:24;;;;;;;2.50;2.20;;;17.50;45.00;;;;;;5079099;28;20698;-20
2022/03/13 07:42:50;;;;;;;2.50;2.30;;;17.50;45.00;;;;;;5080182;28;20206;-22
2022/03/13 07:45:15;;;;;;;2.53;2.23;;;17.50;45.00;;;;;;5079317;28;20198;-21
2022/03/13 07:47:41;;;;;;;2.17;1.97;;;17.50;45.00;;;;;;5078839;28;20189;-22
2022/03/13 07:50:08;;;;;;;2.30;2.10;;;17.50;45.00;;;;;;5078891;28;20777;-17
2022/03/13 07:52:34;;;;;;;2.93;2.30;;;17.70;45.00;;;;;;5079317;28;20238;-21
2022/03/13 07:54:59;;;;;;;2.80;2.47;;;17.90;44.80;;;;;;5079258;28;20203;-21
2022/03/13 07:57:27;;;;;;;2.40;2.20;;;18.10;44.50;;;;;;5079408;28;20262;-21
2022/03/13 07:59:52;;;;;;;2.33;2.13;;;18.20;44.40;;;;;;5078972;28;20220;-20
2022/03/13 08:02:18;;;;;;;2.50;2.30;;;18.40;44.20;;;;;;5078729;28;20180;-19
2022/03/13 08:04:44;;;;;;;2.27;2.07;;;18.30;44.10;;;;;;5078747;28;20186;-17
2022/03/13 08:07:10;;;;;;;2.30;2.10;;;18.10;44.30;;;;;;5077444;28;20234;-19
2022/03/13 08:09:36;;;;;;;2.50;2.00;;;17.90;44.50;;;;;;5078829;28;20162;-21
2022/03/13 08:12:03;;;;;;;2.37;2.17;;;17.70;44.80;;;;;;5078347;28;20199;-19
2022/03/13 08:14:29;;;;;;;2.23;2.03;;;17.60;44.90;;;;;;5078177;28;20270;-17
2022/03/13 08:16:54;;;;;;;2.43;2.10;;;17.50;44.80;;;;;;5078871;28;20313;-15
2022/03/13 08:19:20;;;;;;;2.77;2.30;;;17.40;44.90;;;;;;5078577;28;20219;-17
2022/03/13 08:21:46;;;;;;;2.73;2.20;;;17.40;45.00;;;;;;5078985;28;20185;-20
2022/03/13 08:24:14;;;;;;;2.60;2.40;;;17.40;45.00;;;;;;5078805;28;20236;-19
2022/03/13 08:26:40;;;;;;;2.40;2.20;;;17.30;45.00;;;;;;5077882;28;20562;-18
2022/03/13 08:29:15;;;;;;;2.40;1.87;;;17.30;45.10;;;;;;5077511;28;20182;-18
2022/03/13 08:31:41;;;;;;;3.13;2.60;;;17.30;45.40;;;;;;5078268;28;20680;-18
2022/03/13 08:34:08;;;;;;;3.33;2.20;;;17.30;45.10;;;;;;5078296;28;20163;-18
2022/03/13 08:36:40;;;;;;;3.30;2.40;;;17.40;45.00;;;;;;5078750;28;20186;-20
2022/03/13 08:39:06;;;;;;;2.53;2.33;;;17.40;45.00;;;;;;5078081;28;20187;-20
2022/03/13 08:41:33;;;;;;;2.23;2.03;;;17.50;45.00;;;;;;5078177;28;20181;-17
2022/03/13 08:43:59;;;;;;;2.67;2.00;;;17.50;45.00;;;;;;5079067;28;20240;-21
2022/03/13 08:46:24;;;;;;;2.30;2.10;;;17.50;44.90;;;;;;5077517;28;20190;-21
2022/03/13 08:48:51;;;;;;;2.30;2.10;;;17.60;44.90;;;;;;5077249;28;20556;-21
2022/03/13 08:51:19;;;;;;;2.47;2.27;;;18.10;44.60;;;;;;5076601;28;20207;-18
2022/03/13 08:53:46;;;;;;;4.80;2.07;;;18.60;44.10;;;;;;5076849;28;20203;-21
2022/03/13 08:56:13;;;;;;;2.40;2.20;;;18.90;43.60;;;;;;5076962;28;20191;-20
2022/03/13 08:58:43;;;;;;;2.50;2.30;;;19.00;43.40;;;;;;5076653;28;20177;-21
2022/03/13 09:01:11;;;;;;;3.50;2.40;;;19.20;43.30;;;;;;5090021;28;20231;-19
2022/03/13 09:03:37;;;;;;;2.73;2.33;;;19.40;43.00;;;;;;5092570;28;20745;-18
2022/03/13 09:06:03;;;;;;;3.60;2.30;;;19.60;42.80;;;;;;5093797;28;20183;-21
2022/03/13 09:08:29;;;;;;;2.60;2.40;;;19.80;42.70;;;;;;5092004;28;20266;-20
2022/03/13 09:10:55;;;;;;;2.57;2.23;;;19.90;42.50;;;;;;5091139;28;20522;-20
2022/03/13 09:13:21;;;;;;;2.40;2.20;;;20.00;42.50;;;;;;5092134;28;20567;-19
2022/03/13 09:15:51;;;;;;;2.57;2.37;;;20.00;42.40;;;;;;5093654;28;20171;-23
2022/03/13 09:18:16;;;;;;;2.60;2.40;;;20.00;42.40;;;;;;5094173;28;20175;-23
2022/03/13 09:20:42;;;;;;;2.93;2.23;;;20.10;42.30;;;;;;5091036;28;20179;-21
2022/03/13 09:23:09;;;;;;;3.17;2.23;;;20.20;42.20;;;;;;5093778;28;20209;-20
2022/03/13 09:25:35;;;;;;;3.37;2.40;;;20.20;42.10;;;;;;5093376;28;20178;-20
2022/03/13 09:28:02;;;;;;;2.80;2.37;;;19.50;42.40;;;;;;5092151;28;20443;-21
2022/03/13 09:30:28;;;;;;;3.00;2.60;;;19.00;43.10;;;;;;5092726;28;20245;-21
2022/03/13 09:32:54;;;;;;;2.90;2.33;;;18.70;43.70;;;;;;5092233;28;20716;-19
2022/03/13 09:35:20;;;;;;;2.73;2.30;;;18.50;43.90;;;;;;5092237;28;20172;-18
2022/03/13 09:37:46;;;;;;;2.67;2.20;;;18.50;44.10;;;;;;5091128;28;20421;-18
2022/03/13 09:40:14;;;;;;;4.53;2.30;;;18.40;44.20;;;;;;5091420;28;20258;-18
2022/03/13 09:42:40;;;;;;;3.07;2.30;;;18.40;44.30;;;;;;5093681;28;20268;-20
2022/03/13 09:45:06;;;;;;;2.40;2.20;;;18.40;44.20;;;;;;5092404;28;20499;-21
2022/03/13 09:47:32;;;;;;;3.07;2.50;;;18.50;44.10;;;;;;5092624;28;20171;-22
2022/03/13 09:49:57;;;;;;;2.60;2.13;;;18.50;44.20;;;;;;5092747;28;20175;-16
2022/03/13 09:52:23;;;;;;;2.77;2.40;;;18.40;44.10;;;;;;5090987;28;20206;-21
2022/03/13 09:54:50;;;;;;;2.87;2.60;;;18.40;44.20;;;;;;5090720;28;20175;-23
2022/03/13 09:57:17;;;;;;;3.60;2.33;;;18.40;44.20;;;;;;5092923;28;20175;-21
2022/03/13 09:59:45;;;;;;;2.50;2.30;;;18.40;44.30;;;;;;5091282;28;20270;-21
2022/03/13 10:02:11;;;;;;;2.70;2.50;;;18.40;44.40;;;;;;5092906;28;20170;-23
2022/03/13 10:04:37;;;;;;;3.83;2.73;;;18.40;44.50;;;;;;5091153;28;20444;-19
2022/03/13 10:07:04;;;;;;;3.83;2.57;;;18.40;44.70;;;;;;5090922;28;20531;-20
2022/03/13 10:09:31;;;;;;;3.10;2.80;;;18.40;44.80;;;;;;5092448;28;20502;-23
2022/03/13 10:12:22;;;;;;;5.60;3.10;;;18.50;44.70;;;;;;5092313;28;20285;-23
2022/03/13 10:15:03;;;;;;;5.33;3.30;;;18.50;44.80;;;;;;5089709;28;20210;-24
2022/03/13 10:17:30;;;;;;;5.73;3.40;;;18.50;44.70;;;;;;5093212;28;20171;-22
2022/03/13 10:20:25;;;;;;;5.57;3.57;;;18.50;44.70;;;;;;5092136;28;20175;-23
2022/03/13 10:23:05;;;;;;;5.27;3.87;;;18.50;44.70;;;;;;5090588;28;20195;-23
2022/03/13 10:25:36;;;;;;;6.87;3.40;;;18.50;44.70;;;;;;5090882;28;20167;-22
2022/03/13 10:28:22;;;;;;;4.23;3.63;;;18.50;44.70;;;;;;5092378;28;20166;-25
2022/03/13 10:31:17;;;;;;;5.33;3.57;;;18.50;44.70;;;;;;5091483;28;20182;-22
2022/03/13 10:33:42;;;;;;;7.40;4.27;;;18.50;44.70;;;;;;5091811;28;20199;-22
2022/03/13 10:36:12;;;;;;;5.20;3.80;;;18.50;44.70;;;;;;5093557;28;20181;-22
2022/03/13 10:38:39;;;;;;;4.00;3.50;;;18.60;44.70;;;;;;5092905;28;20160;-22
2022/03/13 10:41:08;;;;;;;3.70;3.30;;;18.60;44.70;;;;;;5079451;28;20176;-21
2022/03/13 10:43:49;;;;;;;4.97;3.87;;;18.60;44.70;;;;;;5075808;28;20177;-25
2022/03/13 10:46:26;;;;;;;3.80;3.40;;;18.60;44.70;;;;;;5073523;28;20170;-17
2022/03/13 10:48:53;;;;;;;3.93;3.37;;;18.60;44.60;;;;;;5071289;28;20567;-21
2022/03/13 10:51:31;;;;;;;4.63;3.80;;;18.60;44.70;;;;;;5071278;28;20182;-20
2022/03/13 10:53:57;;;;;;;5.47;3.83;;;18.60;44.70;;;;;;5071261;28;20480;-23
2022/03/13 10:56:25;;;;;;;6.07;3.87;;;18.60;44.70;;;;;;5071386;28;20227;-23
2022/03/13 10:58:52;;;;;;;5.97;3.93;;;18.60;44.60;;;;;;5071151;28;20174;-21
2022/03/13 11:01:19;;;;;;;5.50;4.00;;;18.60;44.60;;;;;;5071217;28;20191;-20
2022/03/13 11:04:06;;;;;;;6.20;3.80;;;18.60;44.70;;;;;;5069826;28;20218;-21
2022/03/13 11:06:32;;;;;;;4.30;3.53;;;18.60;44.70;;;;;;5072001;28;20164;-19
2022/03/13 11:09:00;;;;;;;6.73;3.90;;;18.60;44.60;;;;;;5071422;28;20175;-21
2022/03/13 11:11:32;;;;;;;3.63;3.33;;;18.60;44.60;;;;;;5071348;28;20171;-21
2022/03/13 11:14:01;;;;;;;4.20;3.80;;;18.60;44.60;;;;;;5070573;28;20583;-20
2022/03/13 11:16:32;;;;;;;5.83;3.90;;;18.60;45.00;;;;;;5073585;28;20213;-22
2022/03/13 11:19:04;;;;;;;5.50;3.63;;;18.60;44.70;;;;;;5074407;28;20328;-19
2022/03/13 11:21:30;;;;;;;5.40;3.77;;;18.60;44.70;;;;;;5077614;28;20190;-21
2022/03/13 11:23:57;;;;;;;6.30;3.80;;;18.60;44.70;;;;;;5098904;28;20175;-20
2022/03/13 11:26:29;;;;;;;5.17;4.20;;;18.60;44.80;;;;;;5099646;28;20555;-20
2022/03/13 11:28:55;;;;;;;6.57;3.80;;;18.60;44.80;;;;;;5096386;28;20177;-19
2022/03/13 11:31:38;;;;;;;6.17;3.50;;;18.60;44.80;;;;;;5096078;28;20178;-22
2022/03/13 11:34:13;;;;;;;7.07;4.00;;;18.70;44.90;;;;;;5094376;28;20202;-20
2022/03/13 11:36:43;;;;;;;5.87;3.47;;;18.70;45.00;;;;;;5096125;28;20172;-21
2022/03/13 11:39:10;;;;;;;5.73;3.63;;;18.70;45.10;;;;;;5092456;28;20175;-18
2022/03/13 11:41:37;;;;;;;8.03;3.80;;;18.70;45.40;;;;;;5094279;28;20158;-18
2022/03/13 11:44:05;;;;;;;6.20;3.57;;;18.70;45.40;;;;;;5093602;28;20240;-19
2022/03/13 11:46:43;;;;;;;5.27;4.07;;;18.80;45.50;;;;;;5093040;28;20185;-17
2022/03/13 11:49:29;;;;;;;7.50;4.20;;;18.70;45.40;;;;;;5093291;28;20627;-17
2022/03/13 11:52:10;;;;;;;5.57;3.83;;;18.70;45.40;;;;;;5093148;28;20265;-18
2022/03/13 11:55:04;;;;;;;7.13;3.90;;;18.70;45.40;;;;;;5093610;28;20167;-20
2022/03/13 11:57:44;;;;;;;7.23;3.97;;;18.70;45.40;;;;;;5096287;28;20174;-22
2022/03/13 12:00:10;;;;;;;10.17;3.90;;;18.70;45.40;;;;;;5099141;28;20173;-20
2022/03/13 12:02:42;;;;;;;5.63;4.10;;;18.70;45.40;;;;;;5096110;28;20422;-20
2022/03/13 12:05:26;;;;;;;5.43;4.13;;;18.70;45.40;;;;;;5093353;28;20216;-20
2022/03/13 12:07:56;;;;;;;4.93;4.13;;;18.70;45.50;;;;;;5093443;28;20450;-16
2022/03/13 12:10:30;;;;;;;7.93;4.23;;;18.70;45.40;;;;;;5093860;28;20163;-23
2022/03/13 12:13:05;;;;;;;7.50;4.70;;;18.70;45.40;;;;;;5093852;28;20189;-17
2022/03/13 12:15:31;;;;;;;6.67;4.10;;;18.80;45.40;;;;;;5092665;28;20197;-21
2022/03/13 12:17:57;;;;;;;6.53;4.70;;;18.70;45.30;;;;;;5093022;28;20175;-20
2022/03/13 12:20:33;;;;;;;7.63;4.20;;;18.80;45.30;;;;;;5091923;28;20189;-21
2022/03/13 12:23:00;;;;;;;5.20;4.10;;;18.70;45.30;;;;;;5092890;28;20555;-20
2022/03/13 12:25:30;;;;;;;5.50;3.87;;;18.80;45.30;;;;;;5091909;28;20174;-19
2022/03/13 12:27:57;;;;;;;7.93;4.00;;;18.80;45.30;;;;;;5074717;28;20171;-18
2022/03/13 12:30:28;;;;;;;9.87;3.80;;;18.80;45.30;;;;;;5092989;28;20164;-18
2022/03/13 12:32:58;;;;;;;8.67;4.40;;;18.80;45.30;;;;;;5092427;28;20256;-18
2022/03/13 12:35:26;;;;;;;11.93;4.30;;;18.80;45.30;;;;;;5090232;28;20167;-19
2022/03/13 12:37:54;;;;;;;6.60;3.87;;;18.80;45.30;;;;;;5091717;28;20403;-18
2022/03/13 12:40:21;;;;;;;7.63;4.40;;;18.80;45.30;;;;;;5091083;28;20496;-18
2022/03/13 12:42:56;;;;;;;7.70;3.83;;;18.80;45.30;;;;;;5073540;28;20552;-21
2022/03/13 12:45:23;;;;;;;7.57;4.23;;;18.80;45.30;;;;;;5086695;28;20182;-18
2022/03/13 12:47:51;;;;;;;12.17;5.00;;;18.80;45.30;;;;;;5071088;28;20270;-16
2022/03/13 12:50:19;;;;;;;6.87;3.80;;;18.80;45.30;;;;;;5072337;28;20171;-22